createdAt,value
2018-05-10T00:00:40.747Z,99.90
2018-05-10T00:03:07.111Z,99.90
2018-05-10T00:05:33.400Z,99.90
2018-05-10T00:07:59.657Z,99.90
2018-05-10T00:10:25.938Z,99.90
2018-05-10T00:12:52.239Z,99.90
2018-05-10T00:15:18.563Z,99.90
2018-05-10T00:17:44.833Z,99.90
2018-05-10T00:20:11.135Z,99.90
2018-05-10T00:22:38.196Z,99.90
2018-05-10T00:25:05.196Z,99.90
2018-05-10T00:27:32.245Z,99.90
2018-05-10T00:29:58.580Z,99.90
2018-05-10T00:32:24.887Z,99.90
2018-05-10T00:34:51.177Z,99.90
2018-05-10T00:37:18.110Z,99.90
2018-05-10T00:39:51.434Z,99.90
2018-05-10T00:42:18.491Z,99.90
2018-05-10T00:44:44.707Z,99.90
2018-05-10T00:47:11.745Z,99.90
2018-05-10T00:49:38.703Z,99.90
2018-05-10T00:52:04.978Z,99.90
2018-05-10T00:54:43.524Z,99.90
2018-05-10T00:57:10.542Z,99.90
2018-05-10T00:59:36.813Z,99.90
2018-05-10T01:02:03.867Z,99.90
2018-05-10T01:04:30.940Z,99.90
2018-05-10T01:06:57.219Z,99.90
2018-05-10T01:09:23.466Z,99.90
2018-05-10T01:11:50.404Z,99.90
2018-05-10T01:14:16.618Z,99.90
2018-05-10T01:16:42.944Z,99.90
2018-05-10T01:19:09.198Z,99.90
2018-05-10T01:21:36.170Z,99.90
2018-05-10T01:24:02.410Z,99.90
2018-05-10T01:26:28.633Z,99.90
2018-05-10T01:28:54.865Z,99.90
2018-05-10T01:31:21.098Z,99.90
2018-05-10T01:33:47.532Z,99.90
2018-05-10T01:36:14.760Z,99.90
2018-05-10T01:38:41.061Z,99.90
2018-05-10T01:41:08.128Z,99.90
2018-05-10T01:43:35.097Z,99.90
2018-05-10T01:46:01.538Z,99.90
2018-05-10T01:48:27.814Z,99.90
2018-05-10T01:50:54.081Z,99.90
2018-05-10T01:53:20.461Z,99.90
2018-05-10T01:55:46.656Z,99.90
2018-05-10T01:58:13.017Z,99.90
2018-05-10T02:00:39.258Z,99.90
2018-05-10T02:03:06.392Z,99.90
2018-05-10T02:05:32.725Z,99.90
2018-05-10T02:07:58.961Z,99.90
2018-05-10T02:10:25.299Z,99.90
2018-05-10T02:12:51.610Z,99.90
2018-05-10T02:15:17.951Z,99.90
2018-05-10T02:17:44.189Z,99.90
2018-05-10T02:20:10.451Z,99.90
2018-05-10T02:22:36.664Z,99.90
2018-05-10T02:25:03.738Z,99.90
2018-05-10T02:27:29.913Z,99.90
2018-05-10T02:29:56.286Z,99.90
2018-05-10T02:32:22.473Z,99.90
2018-05-10T02:34:48.756Z,99.90
2018-05-10T02:37:15.022Z,99.90
2018-05-10T02:39:41.323Z,99.90
2018-05-10T02:42:07.559Z,99.90
2018-05-10T02:44:33.817Z,99.90
2018-05-10T02:47:00.111Z,99.90
2018-05-10T02:49:26.430Z,99.90
2018-05-10T02:51:52.802Z,99.90
2018-05-10T02:54:18.975Z,99.90
2018-05-10T02:56:45.993Z,99.90
2018-05-10T02:59:12.218Z,99.90
2018-05-10T03:01:38.413Z,99.90
2018-05-10T03:04:04.700Z,99.90
2018-05-10T03:06:31.680Z,99.90
2018-05-10T03:08:58.023Z,99.90
2018-05-10T03:11:24.188Z,99.90
2018-05-10T03:13:50.449Z,99.90
2018-05-10T03:16:16.705Z,99.90
2018-05-10T03:18:42.991Z,99.90
2018-05-10T03:21:10.117Z,99.90
2018-05-10T03:23:36.422Z,99.90
2018-05-10T03:26:02.729Z,99.90
2018-05-10T03:28:29.021Z,99.90
2018-05-10T03:30:56.056Z,99.90
2018-05-10T03:33:22.379Z,99.90
2018-05-10T03:35:48.747Z,99.90
2018-05-10T03:38:14.976Z,99.90
2018-05-10T03:40:41.981Z,99.90
2018-05-10T03:43:08.286Z,99.90
2018-05-10T03:45:34.540Z,99.90
2018-05-10T03:48:00.843Z,99.90
2018-05-10T03:50:27.100Z,99.90
2018-05-10T03:52:53.337Z,99.90
2018-05-10T03:55:19.629Z,99.90
2018-05-10T03:57:45.961Z,99.90
2018-05-10T04:00:12.195Z,99.90
2018-05-10T04:02:47.524Z,99.90
2018-05-10T04:08:27.545Z,99.90
2018-05-10T04:11:06.974Z,99.90
2018-05-10T04:13:33.157Z,99.90
2018-05-10T04:15:59.591Z,99.90
2018-05-10T04:18:25.927Z,99.90
2018-05-10T04:20:52.155Z,99.90
2018-05-10T04:23:18.402Z,99.90
2018-05-10T04:25:44.725Z,99.90
2018-05-10T04:28:10.965Z,99.90
2018-05-10T04:30:37.150Z,99.90
2018-05-10T04:33:04.123Z,99.90
2018-05-10T04:35:30.334Z,99.90
2018-05-10T04:37:56.593Z,99.90
2018-05-10T04:40:22.900Z,99.90
2018-05-10T04:42:49.273Z,99.90
2018-05-10T04:45:15.608Z,99.90
2018-05-10T04:47:41.877Z,99.90
2018-05-10T04:50:08.045Z,99.90
2018-05-10T04:52:34.317Z,99.90
2018-05-10T04:55:01.371Z,99.90
2018-05-10T04:57:30.359Z,99.90
2018-05-10T05:00:11.200Z,99.90
2018-05-10T05:02:37.692Z,99.90
2018-05-10T05:05:07.477Z,99.90
2018-05-10T05:07:35.308Z,99.90
2018-05-10T05:10:01.750Z,99.90
2018-05-10T05:12:28.100Z,99.90
2018-05-10T05:14:55.104Z,99.90
2018-05-10T05:17:21.616Z,99.90
2018-05-10T05:19:48.162Z,99.90
2018-05-10T05:22:14.679Z,99.90
2018-05-10T05:24:41.836Z,99.90
2018-05-10T05:27:08.434Z,99.90
2018-05-10T05:29:34.893Z,99.90
2018-05-10T05:32:01.301Z,99.90
2018-05-10T05:34:27.898Z,99.90
2018-05-10T05:36:54.232Z,99.90
2018-05-10T05:39:20.450Z,99.90
2018-05-10T05:41:46.731Z,99.90
2018-05-10T05:44:13.713Z,99.90
2018-05-10T05:46:40.003Z,99.90
2018-05-10T05:49:06.293Z,99.90
2018-05-10T05:51:32.523Z,99.90
2018-05-10T05:53:58.777Z,99.90
2018-05-10T05:56:25.054Z,99.90
2018-05-10T05:58:51.294Z,99.90
2018-05-10T06:01:17.588Z,99.90
2018-05-10T06:03:44.678Z,99.90
2018-05-10T06:06:10.903Z,99.90
2018-05-10T06:08:37.178Z,99.90
2018-05-10T06:11:03.429Z,99.90
2018-05-10T06:13:30.447Z,99.90
2018-05-10T06:15:56.704Z,99.90
2018-05-10T06:18:23.782Z,99.90
2018-05-10T06:20:50.059Z,99.90
2018-05-10T06:23:16.391Z,99.90
2018-05-10T06:25:42.567Z,99.90
2018-05-10T06:28:08.767Z,99.90
2018-05-10T06:30:35.784Z,99.90
2018-05-10T06:33:02.040Z,99.90
2018-05-10T06:35:29.039Z,99.90
2018-05-10T06:37:55.228Z,99.90
2018-05-10T06:40:21.528Z,99.90
2018-05-10T06:42:47.809Z,99.90
2018-05-10T06:45:13.995Z,99.90
2018-05-10T06:47:40.275Z,99.90
2018-05-10T06:50:06.474Z,99.90
2018-05-10T06:52:32.744Z,99.90
2018-05-10T06:54:59.038Z,99.90
2018-05-10T06:57:25.452Z,99.90
2018-05-10T06:59:52.514Z,99.90
2018-05-10T07:02:18.761Z,99.90
2018-05-10T07:04:45.014Z,99.90
2018-05-10T07:07:11.247Z,99.90
2018-05-10T07:09:37.635Z,99.90
2018-05-10T07:12:03.834Z,99.90
2018-05-10T07:14:30.057Z,99.90
2018-05-10T07:16:56.344Z,99.90
2018-05-10T07:19:23.332Z,99.90
2018-05-10T07:21:49.584Z,99.90
2018-05-10T07:24:15.854Z,99.90
2018-05-10T07:26:42.135Z,99.90
2018-05-10T07:29:09.153Z,99.90
2018-05-10T07:31:35.441Z,99.90
2018-05-10T07:34:01.734Z,99.90
2018-05-10T07:36:28.820Z,99.90
2018-05-10T07:38:55.071Z,99.90
2018-05-10T07:41:22.081Z,99.90
2018-05-10T07:43:48.308Z,99.90
2018-05-10T07:46:14.636Z,99.90
2018-05-10T07:48:41.637Z,99.90
2018-05-10T07:51:07.988Z,99.90
2018-05-10T07:53:35.034Z,99.90
2018-05-10T07:56:01.481Z,99.90
2018-05-10T07:58:33.534Z,99.90
2018-05-10T08:00:59.929Z,99.90
2018-05-10T08:03:26.176Z,99.90
2018-05-10T08:05:52.868Z,99.90
2018-05-10T08:08:19.217Z,99.90
2018-05-10T08:10:45.452Z,99.90
2018-05-10T08:13:11.749Z,99.90
2018-05-10T08:15:38.686Z,99.90
2018-05-10T08:18:05.728Z,99.90
2018-05-10T08:20:32.691Z,99.90
2018-05-10T08:22:59.013Z,99.90
2018-05-10T08:25:25.351Z,99.90
2018-05-10T08:27:51.692Z,99.90
2018-05-10T08:30:18.022Z,99.90
2018-05-10T08:32:44.946Z,99.90
2018-05-10T08:35:11.977Z,99.90
2018-05-10T08:37:38.946Z,99.90
2018-05-10T08:40:05.164Z,99.90
2018-05-10T08:42:32.162Z,99.90
2018-05-10T08:44:58.561Z,99.90
2018-05-10T08:47:24.692Z,99.90
2018-05-10T08:49:50.953Z,99.90
2018-05-10T08:52:17.195Z,99.90
2018-05-10T08:54:43.488Z,99.90
2018-05-10T08:57:09.670Z,99.90
2018-05-10T08:59:36.795Z,99.90
2018-05-10T09:02:03.120Z,99.90
2018-05-10T09:04:29.468Z,99.90
2018-05-10T09:06:55.695Z,99.90
2018-05-10T09:09:21.879Z,99.90
2018-05-10T09:11:48.171Z,99.90
2018-05-10T09:14:15.301Z,99.90
2018-05-10T09:16:41.550Z,99.90
2018-05-10T09:19:08.550Z,99.90
2018-05-10T09:21:34.770Z,99.90
2018-05-10T09:24:01.097Z,99.90
2018-05-10T09:26:27.379Z,99.90
2018-05-10T09:28:53.567Z,99.90
2018-05-10T09:31:19.830Z,99.90
2018-05-10T09:33:46.130Z,99.90
2018-05-10T09:36:12.457Z,99.90
2018-05-10T09:38:38.658Z,99.30
2018-05-10T09:41:04.954Z,99.40
2018-05-10T09:43:31.974Z,99.90
2018-05-10T09:45:58.308Z,99.70
2018-05-10T09:48:24.592Z,99.10
2018-05-10T09:50:50.868Z,97.20
2018-05-10T09:53:17.151Z,96.60
2018-05-10T09:55:43.406Z,97.30
2018-05-10T09:58:09.653Z,97.00
2018-05-10T10:00:35.931Z,96.20
2018-05-10T10:03:02.272Z,96.30
2018-05-10T10:05:28.766Z,95.90
2018-05-10T10:07:55.769Z,96.80
2018-05-10T10:10:22.080Z,96.70
2018-05-10T10:12:48.334Z,96.50
2018-05-10T10:15:14.536Z,96.70
2018-05-10T10:17:40.862Z,96.50
2018-05-10T10:20:07.076Z,94.60
2018-05-10T10:22:34.109Z,93.90
2018-05-10T10:25:00.388Z,93.90
2018-05-10T10:27:26.749Z,95.80
2018-05-10T10:29:53.735Z,94.80
2018-05-10T10:32:20.750Z,91.80
2018-05-10T10:34:47.057Z,91.80
2018-05-10T10:37:13.286Z,92.40
2018-05-10T10:39:39.572Z,93.10
2018-05-10T10:42:06.641Z,93.60
2018-05-10T10:44:32.965Z,93.60
2018-05-10T10:46:59.179Z,93.90
2018-05-10T10:49:26.161Z,93.50
2018-05-10T10:51:52.367Z,93.50
2018-05-10T10:54:18.626Z,93.50
2018-05-10T10:56:44.949Z,94.40
2018-05-10T10:59:11.329Z,94.50
2018-05-10T11:01:38.835Z,92.90
2018-05-10T11:04:05.096Z,92.90
2018-05-10T11:06:31.348Z,92.70
2018-05-10T11:08:57.554Z,92.30
2018-05-10T11:11:23.838Z,93.50
2018-05-10T11:13:50.160Z,94.30
2018-05-10T11:16:18.521Z,93.50
2018-05-10T11:18:46.110Z,93.40
2018-05-10T11:21:12.468Z,93.30
2018-05-10T11:23:38.752Z,93.80
2018-05-10T11:26:05.771Z,94.90
2018-05-10T11:28:32.141Z,94.90
2018-05-10T11:30:58.432Z,94.00
2018-05-10T11:33:24.668Z,93.40
2018-05-10T11:35:50.884Z,93.20
2018-05-10T11:38:17.282Z,92.70
2018-05-10T11:40:43.627Z,92.70
2018-05-10T11:43:09.906Z,97.60
2018-05-10T11:45:37.034Z,99.90
2018-05-10T11:48:03.362Z,99.90
2018-05-10T11:50:29.592Z,99.90
2018-05-10T11:52:55.844Z,99.90
2018-05-10T11:55:22.973Z,99.90
2018-05-10T11:57:49.174Z,99.90
2018-05-10T12:00:15.575Z,99.90
2018-05-10T12:02:42.122Z,99.90
2018-05-10T12:05:08.466Z,99.90
2018-05-10T12:07:34.869Z,99.90
2018-05-10T12:10:01.306Z,99.90
2018-05-10T12:12:27.924Z,99.90
2018-05-10T12:14:54.989Z,99.90
2018-05-10T12:17:21.290Z,99.90
2018-05-10T12:19:47.820Z,99.90
2018-05-10T12:22:14.837Z,99.90
2018-05-10T12:24:48.776Z,99.90
2018-05-10T12:27:15.048Z,99.90
2018-05-10T12:29:41.337Z,99.90
2018-05-10T12:32:08.347Z,99.90
2018-05-10T12:34:34.604Z,99.90
2018-05-10T12:37:00.871Z,99.90
2018-05-10T12:39:27.202Z,99.90
2018-05-10T12:41:53.453Z,99.90
2018-05-10T12:44:19.753Z,99.90
2018-05-10T12:46:45.936Z,99.90
2018-05-10T12:49:12.202Z,99.90
2018-05-10T12:51:39.217Z,99.90
2018-05-10T12:54:05.478Z,99.90
2018-05-10T12:56:32.623Z,99.90
2018-05-10T12:58:58.988Z,99.90
2018-05-10T13:01:25.326Z,99.90
2018-05-10T13:03:51.557Z,99.90
2018-05-10T13:06:17.887Z,99.90
2018-05-10T13:08:44.118Z,99.90
2018-05-10T13:11:10.410Z,99.90
2018-05-10T13:13:36.755Z,99.90
2018-05-10T13:16:03.126Z,99.90
2018-05-10T13:18:29.402Z,99.90
2018-05-10T13:20:55.631Z,99.90
2018-05-10T13:23:22.641Z,99.90
2018-05-10T13:25:48.955Z,99.90
2018-05-10T13:28:15.214Z,99.90
2018-05-10T13:30:41.508Z,99.90
2018-05-10T13:33:07.796Z,99.90
2018-05-10T13:35:34.864Z,99.90
2018-05-10T13:38:01.176Z,99.90
2018-05-10T13:40:28.154Z,99.90
2018-05-10T13:42:54.454Z,99.90
2018-05-10T13:45:21.526Z,99.90
2018-05-10T13:47:47.813Z,99.90
2018-05-10T13:50:14.785Z,99.90
2018-05-10T13:52:41.020Z,99.90
2018-05-10T13:55:07.268Z,99.90
2018-05-10T13:57:33.565Z,99.90
2018-05-10T13:59:59.860Z,99.90
2018-05-10T14:02:26.104Z,99.90
2018-05-10T14:04:52.343Z,99.90
2018-05-10T14:07:19.347Z,99.90
2018-05-10T14:09:45.539Z,99.90
2018-05-10T14:12:11.842Z,99.90
2018-05-10T14:14:38.823Z,99.90
2018-05-10T14:17:05.039Z,99.90
2018-05-10T14:19:31.365Z,99.90
2018-05-10T14:21:57.711Z,99.90
2018-05-10T14:24:23.820Z,99.90
2018-05-10T14:26:50.904Z,99.90
2018-05-10T14:29:17.155Z,99.90
2018-05-10T14:31:43.474Z,99.90
2018-05-10T14:34:09.717Z,99.90
2018-05-10T14:36:35.976Z,99.90
2018-05-10T14:39:02.365Z,99.90
2018-05-10T14:41:28.660Z,99.90
2018-05-10T14:43:55.025Z,99.90
2018-05-10T14:46:21.360Z,99.90
2018-05-10T14:48:47.634Z,99.90
2018-05-10T14:51:14.676Z,99.90
2018-05-10T14:53:41.719Z,99.90
2018-05-10T14:56:08.779Z,99.90
2018-05-10T14:58:35.784Z,99.90
2018-05-10T15:01:02.123Z,99.90
2018-05-10T15:03:28.380Z,99.90
2018-05-10T15:05:55.339Z,99.90
2018-05-10T15:08:21.591Z,99.90
2018-05-10T15:10:47.854Z,99.90
2018-05-10T15:13:14.084Z,99.90
2018-05-10T15:15:40.390Z,99.90
2018-05-10T15:18:06.665Z,99.90
2018-05-10T15:20:33.637Z,99.90
2018-05-10T15:22:59.828Z,99.90
2018-05-10T15:25:26.221Z,99.90
2018-05-10T15:27:52.711Z,99.90
2018-05-10T15:30:19.732Z,99.90
2018-05-10T15:32:45.952Z,99.90
2018-05-10T15:35:13.136Z,99.90
2018-05-10T15:37:40.279Z,99.90
2018-05-10T15:40:07.251Z,99.90
2018-05-10T15:42:33.575Z,99.90
2018-05-10T15:44:59.900Z,99.90
2018-05-10T15:47:26.248Z,99.90
2018-05-10T15:49:52.562Z,99.90
2018-05-10T15:52:18.946Z,99.90
2018-05-10T15:54:45.229Z,99.90
2018-05-10T15:57:11.504Z,99.90
2018-05-10T15:59:37.740Z,99.90
2018-05-10T16:02:03.935Z,99.90
2018-05-10T16:04:30.227Z,99.90
2018-05-10T16:06:57.238Z,99.90
2018-05-10T16:09:23.531Z,99.90
2018-05-10T16:11:49.799Z,99.90
2018-05-10T16:14:16.112Z,99.90
2018-05-10T16:16:42.326Z,99.90
2018-05-10T16:19:08.635Z,99.90
2018-05-10T16:21:34.937Z,99.90
2018-05-10T16:24:01.183Z,99.90
2018-05-10T16:26:28.359Z,99.90
2018-05-10T16:28:54.586Z,99.90
2018-05-10T16:31:20.940Z,99.90
2018-05-10T16:33:47.205Z,99.90
2018-05-10T16:36:13.508Z,99.90
2018-05-10T16:38:39.717Z,99.90
2018-05-10T16:41:06.042Z,99.90
2018-05-10T16:43:32.419Z,99.90
2018-05-10T16:45:58.727Z,99.90
2018-05-10T16:48:25.083Z,99.90
2018-05-10T16:50:51.395Z,99.90
2018-05-10T16:53:18.767Z,99.90
2018-05-10T16:55:44.914Z,99.90
2018-05-10T16:58:12.088Z,99.90
2018-05-10T17:00:39.219Z,99.90
2018-05-10T17:03:06.204Z,99.90
2018-05-10T17:05:32.547Z,99.90
2018-05-10T17:07:58.878Z,99.90
2018-05-10T17:10:25.187Z,99.90
2018-05-10T17:12:51.451Z,99.90
2018-05-10T17:15:17.728Z,99.90
2018-05-10T17:17:44.085Z,99.90
2018-05-10T17:20:10.334Z,99.90
2018-05-10T17:22:36.762Z,99.90
2018-05-10T17:25:04.503Z,99.90
2018-05-10T17:27:30.851Z,99.90
2018-05-10T17:29:57.141Z,99.90
2018-05-10T17:32:23.411Z,99.90
2018-05-10T17:34:49.640Z,99.90
2018-05-10T17:37:15.898Z,99.90
2018-05-10T17:39:42.250Z,99.90
2018-05-10T17:42:09.343Z,99.90
2018-05-10T17:44:35.741Z,99.90
2018-05-10T17:47:02.100Z,99.90
2018-05-10T17:49:28.374Z,99.90
2018-05-10T17:51:55.426Z,99.90
2018-05-10T17:54:22.471Z,99.90
2018-05-10T17:56:48.749Z,99.90
2018-05-10T17:59:14.992Z,99.90
2018-05-10T18:01:41.290Z,99.90
2018-05-10T18:04:07.606Z,99.90
2018-05-10T18:06:34.584Z,99.90
2018-05-10T18:09:01.266Z,99.90
2018-05-10T18:11:27.760Z,99.90
2018-05-10T18:13:54.031Z,99.90
2018-05-10T18:16:20.285Z,99.90
2018-05-10T18:18:47.284Z,99.90
2018-05-10T18:21:13.638Z,99.90
2018-05-10T18:23:40.696Z,99.90
2018-05-10T18:26:07.073Z,99.90
2018-05-10T18:28:33.345Z,99.90
2018-05-10T18:30:59.669Z,99.90
2018-05-10T18:33:26.113Z,99.90
2018-05-10T18:35:52.369Z,99.90
2018-05-10T18:38:19.350Z,99.90
2018-05-10T18:40:45.783Z,99.90
2018-05-10T18:43:12.855Z,99.90
2018-05-10T18:45:39.164Z,99.90
2018-05-10T18:48:05.411Z,99.90
2018-05-10T18:50:31.654Z,99.90
2018-05-10T18:52:58.899Z,99.90
2018-05-10T18:55:25.109Z,99.90
2018-05-10T18:57:51.362Z,99.90
2018-05-10T19:00:17.632Z,99.90
2018-05-10T19:02:43.887Z,99.90
2018-05-10T19:05:10.133Z,99.90
2018-05-10T19:07:39.934Z,99.90
2018-05-10T19:10:06.276Z,99.90
2018-05-10T19:12:32.512Z,99.90
2018-05-10T19:14:58.801Z,99.90
2018-05-10T19:17:25.139Z,99.90
2018-05-10T19:19:51.432Z,99.90
2018-05-10T19:22:18.458Z,99.90
2018-05-10T19:24:44.762Z,99.90
2018-05-10T19:27:11.141Z,99.90
2018-05-10T19:29:38.232Z,99.90
2018-05-10T19:32:04.599Z,99.90
2018-05-10T19:34:30.899Z,99.90
2018-05-10T19:36:57.093Z,99.90
2018-05-10T19:39:24.103Z,99.90
2018-05-10T19:41:50.319Z,99.90
2018-05-10T19:44:16.613Z,99.90
2018-05-10T19:46:42.878Z,99.90
2018-05-10T19:49:09.167Z,99.90
2018-05-10T19:51:35.400Z,99.90
2018-05-10T19:54:01.665Z,99.90
2018-05-10T19:56:28.032Z,99.90
2018-05-10T19:58:55.079Z,99.90
2018-05-10T20:01:22.065Z,99.90
2018-05-10T20:03:48.391Z,99.90
2018-05-10T20:06:14.589Z,99.90
2018-05-10T20:08:41.695Z,99.90
2018-05-10T20:11:07.988Z,99.90
2018-05-10T20:13:34.179Z,99.90
2018-05-10T20:16:00.578Z,99.90
2018-05-10T20:18:26.894Z,99.90
2018-05-10T20:20:53.116Z,99.90
2018-05-10T20:23:19.404Z,99.90
2018-05-10T20:25:46.370Z,99.90
2018-05-10T20:28:13.449Z,99.90
2018-05-10T20:30:40.356Z,99.90
2018-05-10T20:33:07.378Z,99.90
2018-05-10T20:35:33.588Z,99.90
2018-05-10T20:37:59.852Z,99.90
2018-05-10T20:40:26.888Z,99.90
2018-05-10T20:42:53.952Z,99.90
2018-05-10T20:45:20.940Z,99.90
2018-05-10T20:47:47.169Z,99.90
2018-05-10T20:50:13.479Z,99.90
2018-05-10T20:52:39.778Z,99.90
2018-05-10T20:55:06.054Z,99.90
2018-05-10T20:57:32.379Z,99.90
2018-05-10T20:59:58.612Z,99.90
2018-05-10T21:02:24.919Z,99.90
2018-05-10T21:04:51.250Z,99.90
2018-05-10T21:07:17.466Z,99.90
2018-05-10T21:09:44.646Z,99.90
2018-05-10T21:12:23.205Z,99.90
2018-05-10T21:14:49.532Z,99.90
2018-05-10T21:17:16.550Z,99.90
2018-05-10T21:19:42.979Z,99.90
2018-05-10T21:22:09.252Z,99.90
2018-05-10T21:24:35.552Z,99.90
2018-05-10T21:27:01.884Z,99.90
2018-05-10T21:29:28.096Z,99.90
2018-05-10T21:31:54.362Z,99.90
2018-05-10T21:34:20.656Z,99.90
2018-05-10T21:36:46.888Z,99.90
2018-05-10T21:39:13.085Z,99.90
2018-05-10T21:41:40.131Z,99.90
2018-05-10T21:44:06.393Z,99.90
2018-05-10T21:46:32.666Z,99.90
2018-05-10T21:48:58.976Z,99.90
2018-05-10T21:51:25.235Z,99.90
2018-05-10T21:53:52.320Z,99.90
2018-05-10T21:56:18.666Z,99.90
2018-05-10T21:58:44.946Z,99.90
2018-05-10T22:01:11.972Z,99.90
2018-05-10T22:03:38.276Z,99.90
2018-05-10T22:06:04.544Z,99.90
2018-05-10T22:08:30.831Z,99.90
2018-05-10T22:10:57.146Z,99.90
2018-05-10T22:13:23.458Z,99.90
2018-05-10T22:15:49.807Z,99.90
2018-05-10T22:18:16.107Z,99.90
2018-05-10T22:20:42.427Z,99.90
2018-05-10T22:23:08.856Z,99.90
2018-05-10T22:25:35.864Z,99.90
2018-05-10T22:28:02.132Z,99.90
2018-05-10T22:30:28.424Z,99.90
2018-05-10T22:32:54.725Z,99.90
2018-05-10T22:35:21.015Z,99.90
2018-05-10T22:37:47.263Z,99.90
2018-05-10T22:40:14.316Z,99.90
2018-05-10T22:42:41.219Z,99.90
2018-05-10T22:45:07.497Z,99.90
2018-05-10T22:47:33.757Z,99.90
2018-05-10T22:49:59.994Z,99.90
2018-05-10T22:52:26.385Z,99.90
2018-05-10T22:54:52.700Z,99.90
2018-05-10T22:57:19.790Z,99.90
2018-05-10T22:59:46.153Z,99.90
2018-05-10T23:02:13.101Z,99.90
2018-05-10T23:04:39.318Z,99.90
2018-05-10T23:07:05.594Z,99.90
2018-05-10T23:09:32.601Z,99.90
2018-05-10T23:12:00.135Z,99.90
2018-05-10T23:14:26.437Z,99.90
2018-05-10T23:16:52.745Z,99.90
2018-05-10T23:19:18.974Z,99.90
2018-05-10T23:21:45.195Z,99.90
2018-05-10T23:24:11.548Z,99.90
2018-05-10T23:26:38.602Z,99.90
2018-05-10T23:29:05.602Z,99.90
2018-05-10T23:31:31.882Z,99.90
2018-05-10T23:33:58.150Z,99.90
2018-05-10T23:36:24.372Z,99.90
2018-05-10T23:38:50.643Z,99.90
2018-05-10T23:41:17.584Z,99.90
2018-05-10T23:43:43.827Z,99.90
2018-05-10T23:46:10.850Z,99.90
2018-05-10T23:48:37.079Z,99.90
2018-05-10T23:51:03.410Z,99.90
2018-05-10T23:53:29.668Z,99.90
2018-05-10T23:55:56.683Z,99.90
2018-05-10T23:58:23.002Z,99.90
